Bridgman, MI (49106)

5:11 AM EST on February 14, 2016 (GMT -0500)
Near Bridgman H.S. | | Change Station
CLOSE
Current Station
Personal Weather Station
Location: Bridgman, MI
Elevation: 676 ft
Nearby Weather Stations

Elev 676 ft 41.94 °N, 86.55 °W | Updated 25 seconds ago

Overcast
Overcast
6.1 °F
Feels Like -1 °F
N
3.7
Wind Variable Wind from SSE

Today
High -- | Low -- °F
--% Chance of Precip.
Yesterday
High -- | Low -- °F
Precip. -- in
Pressure 30.47 in
Visibility 10.0 miles
Clouds Overcast 3100 ft
Windchill -1 °F
Dew Point 1 °F
Humidity 79%
Rainfall 0.00 in
Snow Depth Not available.
7:43 AM 6:17 PM
Waxing Crescent, 40% visible
METAR KBEH 140953Z AUTO 11005KT 10SM OVC031 M12/M16 A3043 RMK AO2 SLP318 T11171161
Pressure 30.47 in
Visibility 10.0 miles
Clouds Overcast 3100 ft
Windchill -1 °F
Dew Point 1 °F
Humidity 79%
Rainfall 0.00 in
Snow Depth Not available.
7:43 AM 6:17 PM
Waxing Crescent, 40% visible
METAR KBEH 140953Z AUTO 11005KT 10SM OVC031 M12/M16 A3043 RMK AO2 SLP318 T11171161

10-Day Weather Forecast

Almanac

Astronomy

Feb. 14, 2016 Rise Set
Actual Time
Civil Twilight
Nautical Twilight
Astronomical Twilight
Moon
Length of Visible Light
Length of Day
Tomorrow will be .
, % of the Moon is Illuminated

Today's Extremes

State Highs State Lows

Community

WunderPhotos

Upload Photos

1,892,765 photos uploaded!

WunderBlog® & News

Nearby

Air Quality

  Air Quality AQ Index Pollutant
Not available.

Snow Depth

Station Depth Elevation

Earthquake Activity

City Distance Mag. Time & Date
Minimum magnitude displayed is 2.5.

Coastal Water Temperatures

Place Temperature

Stations

Nearby Weather Stations

Station Location Temp. Windchill Dew Point Humidity Wind Precip. Elev Updated Type
                   

Watches & Warnings

There are currently no watches in effect.